sensor_id;sensor_type;location;lat;lon;timestamp;P1;durP1;ratioP1;P2;durP2;ratioP2
450;SDS011;212;48.748;9.174;2022-07-23T00:00:05;6.00;;;5.70;;
450;SDS011;212;48.748;9.174;2022-07-23T00:02:32;6.73;;;6.33;;
450;SDS011;212;48.748;9.174;2022-07-23T00:04:59;5.90;;;5.60;;
450;SDS011;212;48.748;9.174;2022-07-23T00:07:27;6.43;;;6.03;;
450;SDS011;212;48.748;9.174;2022-07-23T00:09:54;6.50;;;6.13;;
450;SDS011;212;48.748;9.174;2022-07-23T00:12:21;6.83;;;6.43;;
450;SDS011;212;48.748;9.174;2022-07-23T00:14:47;6.17;;;5.87;;
450;SDS011;212;48.748;9.174;2022-07-23T00:17:14;5.80;;;5.50;;
450;SDS011;212;48.748;9.174;2022-07-23T00:19:41;6.00;;;5.70;;
450;SDS011;212;48.748;9.174;2022-07-23T00:22:07;6.93;;;4.90;;
450;SDS011;212;48.748;9.174;2022-07-23T00:24:35;4.77;;;4.47;;
450;SDS011;212;48.748;9.174;2022-07-23T00:27:02;6.47;;;4.40;;
450;SDS011;212;48.748;9.174;2022-07-23T00:29:29;4.80;;;4.50;;
450;SDS011;212;48.748;9.174;2022-07-23T00:31:55;4.83;;;4.53;;
450;SDS011;212;48.748;9.174;2022-07-23T00:34:22;5.13;;;4.83;;
450;SDS011;212;48.748;9.174;2022-07-23T00:36:49;4.80;;;4.50;;
450;SDS011;212;48.748;9.174;2022-07-23T00:39:15;4.83;;;4.47;;
450;SDS011;212;48.748;9.174;2022-07-23T00:41:43;5.20;;;4.90;;
450;SDS011;212;48.748;9.174;2022-07-23T00:44:14;5.47;;;4.70;;
450;SDS011;212;48.748;9.174;2022-07-23T00:46:44;5.07;;;4.77;;
450;SDS011;212;48.748;9.174;2022-07-23T00:49:12;6.77;;;5.03;;
450;SDS011;212;48.748;9.174;2022-07-23T00:51:38;5.57;;;5.27;;
450;SDS011;212;48.748;9.174;2022-07-23T00:54:05;5.33;;;4.50;;
450;SDS011;212;48.748;9.174;2022-07-23T00:56:32;5.90;;;5.60;;
450;SDS011;212;48.748;9.174;2022-07-23T00:59:00;4.97;;;4.67;;
450;SDS011;212;48.748;9.174;2022-07-23T01:01:28;6.10;;;5.80;;
450;SDS011;212;48.748;9.174;2022-07-23T01:03:54;5.30;;;5.00;;
450;SDS011;212;48.748;9.174;2022-07-23T01:06:21;5.40;;;5.10;;
450;SDS011;212;48.748;9.174;2022-07-23T01:08:48;5.23;;;4.93;;
450;SDS011;212;48.748;9.174;2022-07-23T01:11:14;5.13;;;4.83;;
450;SDS011;212;48.748;9.174;2022-07-23T01:13:42;6.57;;;5.40;;
450;SDS011;212;48.748;9.174;2022-07-23T01:16:10;4.60;;;4.30;;
450;SDS011;212;48.748;9.174;2022-07-23T01:18:37;5.33;;;4.57;;
450;SDS011;212;48.748;9.174;2022-07-23T01:21:03;5.90;;;5.60;;
450;SDS011;212;48.748;9.174;2022-07-23T01:23:32;5.10;;;4.80;;
450;SDS011;212;48.748;9.174;2022-07-23T01:25:58;5.03;;;4.73;;
450;SDS011;212;48.748;9.174;2022-07-23T01:28:25;5.13;;;4.83;;
450;SDS011;212;48.748;9.174;2022-07-23T01:30:52;5.33;;;4.90;;
450;SDS011;212;48.748;9.174;2022-07-23T01:33:18;5.20;;;4.90;;
450;SDS011;212;48.748;9.174;2022-07-23T01:35:45;4.80;;;4.50;;
450;SDS011;212;48.748;9.174;2022-07-23T01:38:11;5.30;;;5.00;;
450;SDS011;212;48.748;9.174;2022-07-23T01:40:39;6.10;;;5.80;;
450;SDS011;212;48.748;9.174;2022-07-23T01:43:06;5.10;;;4.80;;
450;SDS011;212;48.748;9.174;2022-07-23T01:45:33;5.10;;;4.80;;
450;SDS011;212;48.748;9.174;2022-07-23T01:47:59;5.43;;;5.13;;
450;SDS011;212;48.748;9.174;2022-07-23T01:50:26;4.90;;;4.60;;
450;SDS011;212;48.748;9.174;2022-07-23T01:52:53;5.70;;;5.40;;
450;SDS011;212;48.748;9.174;2022-07-23T01:55:19;4.63;;;4.33;;
450;SDS011;212;48.748;9.174;2022-07-23T01:57:47;5.23;;;4.93;;
450;SDS011;212;48.748;9.174;2022-07-23T02:00:14;4.53;;;4.23;;
450;SDS011;212;48.748;9.174;2022-07-23T02:02:41;5.37;;;5.07;;
450;SDS011;212;48.748;9.174;2022-07-23T02:05:08;5.07;;;4.77;;
450;SDS011;212;48.748;9.174;2022-07-23T02:07:35;5.47;;;5.17;;
450;SDS011;212;48.748;9.174;2022-07-23T02:10:02;4.87;;;4.53;;
450;SDS011;212;48.748;9.174;2022-07-23T02:12:29;6.20;;;4.60;;
450;SDS011;212;48.748;9.174;2022-07-23T02:14:57;5.50;;;5.20;;
450;SDS011;212;48.748;9.174;2022-07-23T02:17:23;6.00;;;5.70;;
450;SDS011;212;48.748;9.174;2022-07-23T02:19:50;5.27;;;4.97;;
450;SDS011;212;48.748;9.174;2022-07-23T02:22:17;4.97;;;4.67;;
450;SDS011;212;48.748;9.174;2022-07-23T02:24:43;5.27;;;4.97;;
450;SDS011;212;48.748;9.174;2022-07-23T02:27:10;6.17;;;5.87;;
450;SDS011;212;48.748;9.174;2022-07-23T02:29:36;4.93;;;4.63;;
450;SDS011;212;48.748;9.174;2022-07-23T02:32:05;4.83;;;4.53;;
450;SDS011;212;48.748;9.174;2022-07-23T02:34:31;5.33;;;5.03;;
450;SDS011;212;48.748;9.174;2022-07-23T02:36:58;4.87;;;4.57;;
450;SDS011;212;48.748;9.174;2022-07-23T02:39:25;4.90;;;4.60;;
450;SDS011;212;48.748;9.174;2022-07-23T02:41:52;5.60;;;5.30;;
450;SDS011;212;48.748;9.174;2022-07-23T02:44:19;5.40;;;5.10;;
450;SDS011;212;48.748;9.174;2022-07-23T02:46:45;5.70;;;5.40;;
450;SDS011;212;48.748;9.174;2022-07-23T02:49:13;4.50;;;4.20;;
450;SDS011;212;48.748;9.174;2022-07-23T02:51:40;4.93;;;4.63;;
450;SDS011;212;48.748;9.174;2022-07-23T02:54:07;5.53;;;5.23;;
450;SDS011;212;48.748;9.174;2022-07-23T02:56:33;6.20;;;5.93;;
450;SDS011;212;48.748;9.174;2022-07-23T02:59:00;5.00;;;4.70;;
450;SDS011;212;48.748;9.174;2022-07-23T03:01:27;7.67;;;5.20;;
450;SDS011;212;48.748;9.174;2022-07-23T03:03:53;5.20;;;4.90;;
450;SDS011;212;48.748;9.174;2022-07-23T03:06:21;6.67;;;5.77;;
450;SDS011;212;48.748;9.174;2022-07-23T03:08:48;5.70;;;5.40;;
450;SDS011;212;48.748;9.174;2022-07-23T03:11:15;5.93;;;5.63;;
450;SDS011;212;48.748;9.174;2022-07-23T03:13:41;5.80;;;5.50;;
450;SDS011;212;48.748;9.174;2022-07-23T03:16:08;5.40;;;5.10;;
450;SDS011;212;48.748;9.174;2022-07-23T03:18:35;5.43;;;5.13;;
450;SDS011;212;48.748;9.174;2022-07-23T03:21:02;5.97;;;5.67;;
450;SDS011;212;48.748;9.174;2022-07-23T03:23:30;5.87;;;5.60;;
450;SDS011;212;48.748;9.174;2022-07-23T03:25:57;5.80;;;5.50;;
450;SDS011;212;48.748;9.174;2022-07-23T03:28:23;5.50;;;5.20;;
450;SDS011;212;48.748;9.174;2022-07-23T03:30:50;5.63;;;5.33;;
450;SDS011;212;48.748;9.174;2022-07-23T03:33:17;5.83;;;5.53;;
450;SDS011;212;48.748;9.174;2022-07-23T03:35:45;6.07;;;5.77;;
450;SDS011;212;48.748;9.174;2022-07-23T03:38:12;5.80;;;5.50;;
450;SDS011;212;48.748;9.174;2022-07-23T03:40:41;5.97;;;5.67;;
450;SDS011;212;48.748;9.174;2022-07-23T03:43:08;5.67;;;5.37;;
450;SDS011;212;48.748;9.174;2022-07-23T03:45:34;5.57;;;5.27;;
450;SDS011;212;48.748;9.174;2022-07-23T03:48:01;6.10;;;5.80;;
450;SDS011;212;48.748;9.174;2022-07-23T03:50:28;5.80;;;5.50;;
450;SDS011;212;48.748;9.174;2022-07-23T03:52:54;6.40;;;5.40;;
450;SDS011;212;48.748;9.174;2022-07-23T03:55:21;7.70;;;5.90;;
450;SDS011;212;48.748;9.174;2022-07-23T03:57:49;6.43;;;6.03;;
450;SDS011;212;48.748;9.174;2022-07-23T04:00:16;5.80;;;5.50;;
450;SDS011;212;48.748;9.174;2022-07-23T04:02:43;5.93;;;5.63;;
450;SDS011;212;48.748;9.174;2022-07-23T04:05:09;6.77;;;6.37;;
450;SDS011;212;48.748;9.174;2022-07-23T04:07:36;6.30;;;5.30;;
450;SDS011;212;48.748;9.174;2022-07-23T04:10:03;6.27;;;5.93;;
450;SDS011;212;48.748;9.174;2022-07-23T04:12:30;6.37;;;5.50;;
450;SDS011;212;48.748;9.174;2022-07-23T04:14:58;6.83;;;6.43;;
450;SDS011;212;48.748;9.174;2022-07-23T04:17:25;6.27;;;5.83;;
450;SDS011;212;48.748;9.174;2022-07-23T04:19:51;6.03;;;5.73;;
450;SDS011;212;48.748;9.174;2022-07-23T04:22:18;5.70;;;5.40;;
450;SDS011;212;48.748;9.174;2022-07-23T04:24:45;6.10;;;5.80;;
450;SDS011;212;48.748;9.174;2022-07-23T04:27:11;6.20;;;5.90;;
450;SDS011;212;48.748;9.174;2022-07-23T04:29:38;5.93;;;5.63;;
450;SDS011;212;48.748;9.174;2022-07-23T04:32:06;6.20;;;5.90;;
450;SDS011;212;48.748;9.174;2022-07-23T04:34:33;6.83;;;6.43;;
450;SDS011;212;48.748;9.174;2022-07-23T04:37:00;5.87;;;5.57;;
450;SDS011;212;48.748;9.174;2022-07-23T04:39:26;6.97;;;6.57;;
450;SDS011;212;48.748;9.174;2022-07-23T04:41:53;6.20;;;5.90;;
450;SDS011;212;48.748;9.174;2022-07-23T04:44:20;5.30;;;5.00;;
450;SDS011;212;48.748;9.174;2022-07-23T04:46:46;6.23;;;5.90;;
450;SDS011;212;48.748;9.174;2022-07-23T04:49:14;6.00;;;5.70;;
450;SDS011;212;48.748;9.174;2022-07-23T04:51:41;6.17;;;5.83;;
450;SDS011;212;48.748;9.174;2022-07-23T04:54:07;6.10;;;5.83;;
450;SDS011;212;48.748;9.174;2022-07-23T04:56:34;5.63;;;5.33;;
450;SDS011;212;48.748;9.174;2022-07-23T04:59:01;6.43;;;5.30;;
450;SDS011;212;48.748;9.174;2022-07-23T05:01:27;5.53;;;5.23;;
450;SDS011;212;48.748;9.174;2022-07-23T05:03:54;7.37;;;6.53;;
450;SDS011;212;48.748;9.174;2022-07-23T05:06:22;5.40;;;5.10;;
450;SDS011;212;48.748;9.174;2022-07-23T05:08:48;6.27;;;5.93;;
450;SDS011;212;48.748;9.174;2022-07-23T05:11:15;6.47;;;6.07;;
450;SDS011;212;48.748;9.174;2022-07-23T05:13:42;6.13;;;5.80;;
450;SDS011;212;48.748;9.174;2022-07-23T05:16:08;5.10;;;4.80;;
450;SDS011;212;48.748;9.174;2022-07-23T05:18:35;5.90;;;5.60;;
450;SDS011;212;48.748;9.174;2022-07-23T05:21:02;5.93;;;5.63;;
450;SDS011;212;48.748;9.174;2022-07-23T05:23:30;6.67;;;6.27;;
450;SDS011;212;48.748;9.174;2022-07-23T05:25:56;5.90;;;5.63;;
450;SDS011;212;48.748;9.174;2022-07-23T05:28:23;6.43;;;6.07;;
450;SDS011;212;48.748;9.174;2022-07-23T05:30:50;6.20;;;5.53;;
450;SDS011;212;48.748;9.174;2022-07-23T05:33:17;5.63;;;5.33;;
450;SDS011;212;48.748;9.174;2022-07-23T05:35:44;6.07;;;5.77;;
450;SDS011;212;48.748;9.174;2022-07-23T05:38:11;6.43;;;5.57;;
450;SDS011;212;48.748;9.174;2022-07-23T05:40:39;6.73;;;6.33;;
450;SDS011;212;48.748;9.174;2022-07-23T05:43:06;6.03;;;5.73;;
450;SDS011;212;48.748;9.174;2022-07-23T05:45:32;6.77;;;6.37;;
450;SDS011;212;48.748;9.174;2022-07-23T05:47:59;7.03;;;6.63;;
450;SDS011;212;48.748;9.174;2022-07-23T05:50:25;7.53;;;7.13;;
450;SDS011;212;48.748;9.174;2022-07-23T05:52:52;7.17;;;6.40;;
450;SDS011;212;48.748;9.174;2022-07-23T05:55:19;8.80;;;7.40;;
450;SDS011;212;48.748;9.174;2022-07-23T05:57:47;7.70;;;7.30;;
450;SDS011;212;48.748;9.174;2022-07-23T06:00:13;6.87;;;6.47;;
450;SDS011;212;48.748;9.174;2022-07-23T06:02:41;6.60;;;6.20;;
450;SDS011;212;48.748;9.174;2022-07-23T06:05:08;6.50;;;6.10;;
450;SDS011;212;48.748;9.174;2022-07-23T06:07:35;6.57;;;6.17;;
450;SDS011;212;48.748;9.174;2022-07-23T06:10:01;7.33;;;6.93;;
450;SDS011;212;48.748;9.174;2022-07-23T06:12:29;8.70;;;6.53;;
450;SDS011;212;48.748;9.174;2022-07-23T06:14:57;7.47;;;6.27;;
450;SDS011;212;48.748;9.174;2022-07-23T06:17:23;7.87;;;7.47;;
450;SDS011;212;48.748;9.174;2022-07-23T06:19:50;8.17;;;6.80;;
450;SDS011;212;48.748;9.174;2022-07-23T06:22:17;7.20;;;6.57;;
450;SDS011;212;48.748;9.174;2022-07-23T06:24:43;7.40;;;7.00;;
450;SDS011;212;48.748;9.174;2022-07-23T06:27:10;6.70;;;6.30;;
450;SDS011;212;48.748;9.174;2022-07-23T06:29:37;7.27;;;6.87;;
450;SDS011;212;48.748;9.174;2022-07-23T06:32:07;6.67;;;6.17;;
450;SDS011;212;48.748;9.174;2022-07-23T06:34:34;6.70;;;6.30;;
450;SDS011;212;48.748;9.174;2022-07-23T06:37:00;6.70;;;6.30;;
450;SDS011;212;48.748;9.174;2022-07-23T06:39:27;6.27;;;5.93;;
450;SDS011;212;48.748;9.174;2022-07-23T06:41:54;6.90;;;6.50;;
450;SDS011;212;48.748;9.174;2022-07-23T06:44:20;6.90;;;6.50;;
450;SDS011;212;48.748;9.174;2022-07-23T06:46:47;7.40;;;7.00;;
450;SDS011;212;48.748;9.174;2022-07-23T06:49:15;6.53;;;6.13;;
450;SDS011;212;48.748;9.174;2022-07-23T06:51:42;7.00;;;6.60;;
450;SDS011;212;48.748;9.174;2022-07-23T06:54:08;7.30;;;6.70;;
450;SDS011;212;48.748;9.174;2022-07-23T06:56:35;8.07;;;7.40;;
450;SDS011;212;48.748;9.174;2022-07-23T06:59:02;6.37;;;6.00;;
450;SDS011;212;48.748;9.174;2022-07-23T07:01:28;6.07;;;5.77;;
450;SDS011;212;48.748;9.174;2022-07-23T07:03:55;6.93;;;6.53;;
450;SDS011;212;48.748;9.174;2022-07-23T07:06:23;6.90;;;6.50;;
450;SDS011;212;48.748;9.174;2022-07-23T07:08:50;7.80;;;7.40;;
450;SDS011;212;48.748;9.174;2022-07-23T07:11:16;9.17;;;7.67;;
450;SDS011;212;48.748;9.174;2022-07-23T07:13:43;6.90;;;6.50;;
450;SDS011;212;48.748;9.174;2022-07-23T07:16:10;7.47;;;7.07;;
450;SDS011;212;48.748;9.174;2022-07-23T07:18:36;6.90;;;6.50;;
450;SDS011;212;48.748;9.174;2022-07-23T07:21:03;6.73;;;6.33;;
450;SDS011;212;48.748;9.174;2022-07-23T07:23:31;6.97;;;6.57;;
450;SDS011;212;48.748;9.174;2022-07-23T07:25:58;6.17;;;5.87;;
450;SDS011;212;48.748;9.174;2022-07-23T07:28:24;9.37;;;6.50;;
450;SDS011;212;48.748;9.174;2022-07-23T07:30:51;6.90;;;6.50;;
450;SDS011;212;48.748;9.174;2022-07-23T07:33:18;6.50;;;6.10;;
450;SDS011;212;48.748;9.174;2022-07-23T07:35:46;7.17;;;6.77;;
450;SDS011;212;48.748;9.174;2022-07-23T07:38:12;7.17;;;5.93;;
450;SDS011;212;48.748;9.174;2022-07-23T07:40:40;7.40;;;7.00;;
450;SDS011;212;48.748;9.174;2022-07-23T07:43:07;6.47;;;6.07;;
450;SDS011;212;48.748;9.174;2022-07-23T07:45:34;6.20;;;5.87;;
450;SDS011;212;48.748;9.174;2022-07-23T07:48:00;7.23;;;6.83;;
450;SDS011;212;48.748;9.174;2022-07-23T07:50:27;6.90;;;6.50;;
450;SDS011;212;48.748;9.174;2022-07-23T07:52:53;6.33;;;5.97;;
450;SDS011;212;48.748;9.174;2022-07-23T07:55:20;6.80;;;6.40;;
450;SDS011;212;48.748;9.174;2022-07-23T07:57:48;6.43;;;6.03;;
450;SDS011;212;48.748;9.174;2022-07-23T08:00:15;6.57;;;6.20;;
450;SDS011;212;48.748;9.174;2022-07-23T08:02:43;5.93;;;5.63;;
450;SDS011;212;48.748;9.174;2022-07-23T08:05:11;6.57;;;6.17;;
450;SDS011;212;48.748;9.174;2022-07-23T08:07:38;6.00;;;5.70;;
450;SDS011;212;48.748;9.174;2022-07-23T08:10:05;6.80;;;6.40;;
450;SDS011;212;48.748;9.174;2022-07-23T08:12:43;6.60;;;6.20;;
450;SDS011;212;48.748;9.174;2022-07-23T08:15:12;7.20;;;6.80;;
450;SDS011;212;48.748;9.174;2022-07-23T08:17:40;7.53;;;7.13;;
450;SDS011;212;48.748;9.174;2022-07-23T08:20:08;7.10;;;6.27;;
450;SDS011;212;48.748;9.174;2022-07-23T08:22:43;7.23;;;6.83;;
450;SDS011;212;48.748;9.174;2022-07-23T08:25:10;7.10;;;6.70;;
450;SDS011;212;48.748;9.174;2022-07-23T08:27:37;6.60;;;6.20;;
450;SDS011;212;48.748;9.174;2022-07-23T08:30:04;5.97;;;5.67;;
450;SDS011;212;48.748;9.174;2022-07-23T08:32:33;6.93;;;6.53;;
450;SDS011;212;48.748;9.174;2022-07-23T08:35:13;7.03;;;6.63;;
450;SDS011;212;48.748;9.174;2022-07-23T08:37:39;6.40;;;6.00;;
450;SDS011;212;48.748;9.174;2022-07-23T08:40:06;6.87;;;6.47;;
450;SDS011;212;48.748;9.174;2022-07-23T08:42:34;5.73;;;5.43;;
450;SDS011;212;48.748;9.174;2022-07-23T08:45:02;6.57;;;6.17;;
450;SDS011;212;48.748;9.174;2022-07-23T08:47:29;6.23;;;5.80;;
450;SDS011;212;48.748;9.174;2022-07-23T08:49:58;5.57;;;5.27;;
450;SDS011;212;48.748;9.174;2022-07-23T08:52:25;6.03;;;5.73;;
450;SDS011;212;48.748;9.174;2022-07-23T08:54:52;6.17;;;5.87;;
450;SDS011;212;48.748;9.174;2022-07-23T08:57:20;6.00;;;5.70;;
450;SDS011;212;48.748;9.174;2022-07-23T08:59:47;6.17;;;5.87;;
450;SDS011;212;48.748;9.174;2022-07-23T09:02:13;5.40;;;5.10;;
450;SDS011;212;48.748;9.174;2022-07-23T09:04:40;6.07;;;5.77;;
450;SDS011;212;48.748;9.174;2022-07-23T09:07:09;5.80;;;5.50;;
450;SDS011;212;48.748;9.174;2022-07-23T09:09:36;5.77;;;5.47;;
450;SDS011;212;48.748;9.174;2022-07-23T09:12:03;6.00;;;5.70;;
450;SDS011;212;48.748;9.174;2022-07-23T09:14:37;5.60;;;5.30;;
450;SDS011;212;48.748;9.174;2022-07-23T09:17:11;5.40;;;5.10;;
450;SDS011;212;48.748;9.174;2022-07-23T09:19:39;5.73;;;5.43;;
450;SDS011;212;48.748;9.174;2022-07-23T09:22:20;5.40;;;5.10;;
450;SDS011;212;48.748;9.174;2022-07-23T09:25:04;6.20;;;5.87;;
450;SDS011;212;48.748;9.174;2022-07-23T09:27:46;6.40;;;6.00;;
450;SDS011;212;48.748;9.174;2022-07-23T09:30:19;5.20;;;4.90;;
450;SDS011;212;48.748;9.174;2022-07-23T09:35:44;5.37;;;5.07;;
450;SDS011;212;48.748;9.174;2022-07-23T09:38:13;4.77;;;4.47;;
450;SDS011;212;48.748;9.174;2022-07-23T09:40:40;5.20;;;4.90;;
450;SDS011;212;48.748;9.174;2022-07-23T09:43:07;4.63;;;4.33;;
450;SDS011;212;48.748;9.174;2022-07-23T09:45:34;6.00;;;5.70;;
450;SDS011;212;48.748;9.174;2022-07-23T09:48:10;5.40;;;5.07;;
450;SDS011;212;48.748;9.174;2022-07-23T09:50:37;5.60;;;5.30;;
450;SDS011;212;48.748;9.174;2022-07-23T09:53:04;5.00;;;4.70;;
450;SDS011;212;48.748;9.174;2022-07-23T09:55:33;5.27;;;4.97;;
450;SDS011;212;48.748;9.174;2022-07-23T09:58:03;5.70;;;5.40;;
450;SDS011;212;48.748;9.174;2022-07-23T10:00:31;4.53;;;4.23;;
450;SDS011;212;48.748;9.174;2022-07-23T10:02:59;5.00;;;4.70;;
450;SDS011;212;48.748;9.174;2022-07-23T10:05:27;7.90;;;5.40;;
450;SDS011;212;48.748;9.174;2022-07-23T10:07:55;4.83;;;4.53;;
450;SDS011;212;48.748;9.174;2022-07-23T10:10:23;5.67;;;5.37;;
450;SDS011;212;48.748;9.174;2022-07-23T10:12:54;6.57;;;6.17;;
450;SDS011;212;48.748;9.174;2022-07-23T10:15:44;5.67;;;5.37;;
450;SDS011;212;48.748;9.174;2022-07-23T10:18:25;7.07;;;6.67;;
450;SDS011;212;48.748;9.174;2022-07-23T10:20:52;5.70;;;5.40;;
450;SDS011;212;48.748;9.174;2022-07-23T10:23:21;11.00;;;7.33;;
450;SDS011;212;48.748;9.174;2022-07-23T10:25:55;7.13;;;6.73;;
450;SDS011;212;48.748;9.174;2022-07-23T10:28:30;5.90;;;5.60;;
450;SDS011;212;48.748;9.174;2022-07-23T10:31:17;6.03;;;5.73;;
450;SDS011;212;48.748;9.174;2022-07-23T10:34:10;6.20;;;5.90;;
450;SDS011;212;48.748;9.174;2022-07-23T10:36:44;6.57;;;6.17;;
450;SDS011;212;48.748;9.174;2022-07-23T10:39:17;6.47;;;6.07;;
450;SDS011;212;48.748;9.174;2022-07-23T10:41:48;6.40;;;6.00;;
450;SDS011;212;48.748;9.174;2022-07-23T10:44:17;5.93;;;5.63;;
450;SDS011;212;48.748;9.174;2022-07-23T10:46:53;6.60;;;6.20;;
450;SDS011;212;48.748;9.174;2022-07-23T10:49:31;6.70;;;6.30;;
450;SDS011;212;48.748;9.174;2022-07-23T10:52:15;6.00;;;5.70;;
450;SDS011;212;48.748;9.174;2022-07-23T10:54:43;5.40;;;5.10;;
450;SDS011;212;48.748;9.174;2022-07-23T10:57:14;5.60;;;5.30;;
450;SDS011;212;48.748;9.174;2022-07-23T11:02:55;5.33;;;5.03;;
450;SDS011;212;48.748;9.174;2022-07-23T11:05:25;5.70;;;5.40;;
450;SDS011;212;48.748;9.174;2022-07-23T11:08:14;5.50;;;5.20;;
450;SDS011;212;48.748;9.174;2022-07-23T11:10:44;6.00;;;5.70;;
450;SDS011;212;48.748;9.174;2022-07-23T11:16:05;6.00;;;5.70;;
450;SDS011;212;48.748;9.174;2022-07-23T11:21:43;6.73;;;6.33;;
450;SDS011;212;48.748;9.174;2022-07-23T11:24:21;7.63;;;7.23;;
450;SDS011;212;48.748;9.174;2022-07-23T11:26:53;6.70;;;6.30;;
450;SDS011;212;48.748;9.174;2022-07-23T11:29:44;6.90;;;6.50;;
450;SDS011;212;48.748;9.174;2022-07-23T11:32:19;6.73;;;6.33;;
450;SDS011;212;48.748;9.174;2022-07-23T11:34:53;7.03;;;6.63;;
450;SDS011;212;48.748;9.174;2022-07-23T11:37:29;6.87;;;6.47;;
450;SDS011;212;48.748;9.174;2022-07-23T11:40:03;7.80;;;7.40;;
450;SDS011;212;48.748;9.174;2022-07-23T11:42:33;7.30;;;6.90;;
450;SDS011;212;48.748;9.174;2022-07-23T11:45:00;6.90;;;6.50;;
450;SDS011;212;48.748;9.174;2022-07-23T11:47:27;6.53;;;6.13;;
450;SDS011;212;48.748;9.174;2022-07-23T11:49:54;6.60;;;6.20;;
450;SDS011;212;48.748;9.174;2022-07-23T11:52:22;6.40;;;6.03;;
450;SDS011;212;48.748;9.174;2022-07-23T11:54:51;7.33;;;6.93;;
450;SDS011;212;48.748;9.174;2022-07-23T11:57:20;7.17;;;6.77;;
450;SDS011;212;48.748;9.174;2022-07-23T11:59:51;7.43;;;7.03;;
450;SDS011;212;48.748;9.174;2022-07-23T12:02:21;7.03;;;6.63;;
450;SDS011;212;48.748;9.174;2022-07-23T12:04:48;6.90;;;6.50;;
450;SDS011;212;48.748;9.174;2022-07-23T12:07:26;6.83;;;6.43;;
450;SDS011;212;48.748;9.174;2022-07-23T12:09:56;6.27;;;5.93;;
450;SDS011;212;48.748;9.174;2022-07-23T12:12:23;8.00;;;7.60;;
450;SDS011;212;48.748;9.174;2022-07-23T12:14:51;7.87;;;7.47;;
450;SDS011;212;48.748;9.174;2022-07-23T12:17:19;5.87;;;5.57;;
450;SDS011;212;48.748;9.174;2022-07-23T12:19:46;6.67;;;6.27;;
450;SDS011;212;48.748;9.174;2022-07-23T12:22:13;7.30;;;6.90;;
450;SDS011;212;48.748;9.174;2022-07-23T12:24:53;5.97;;;5.67;;
450;SDS011;212;48.748;9.174;2022-07-23T12:27:22;7.30;;;6.90;;
450;SDS011;212;48.748;9.174;2022-07-23T12:29:50;6.90;;;6.50;;
450;SDS011;212;48.748;9.174;2022-07-23T12:32:17;7.00;;;6.60;;
450;SDS011;212;48.748;9.174;2022-07-23T12:34:45;7.13;;;6.73;;
450;SDS011;212;48.748;9.174;2022-07-23T12:37:26;7.27;;;6.87;;
450;SDS011;212;48.748;9.174;2022-07-23T12:39:56;7.40;;;7.00;;
450;SDS011;212;48.748;9.174;2022-07-23T12:42:23;6.20;;;5.90;;
450;SDS011;212;48.748;9.174;2022-07-23T12:45:03;6.80;;;6.40;;
450;SDS011;212;48.748;9.174;2022-07-23T12:50:31;6.80;;;6.40;;
450;SDS011;212;48.748;9.174;2022-07-23T12:53:03;6.27;;;5.93;;
450;SDS011;212;48.748;9.174;2022-07-23T12:55:31;7.30;;;6.90;;
450;SDS011;212;48.748;9.174;2022-07-23T12:58:05;7.30;;;6.90;;
450;SDS011;212;48.748;9.174;2022-07-23T13:00:48;7.30;;;6.90;;
450;SDS011;212;48.748;9.174;2022-07-23T13:03:23;8.20;;;7.80;;
450;SDS011;212;48.748;9.174;2022-07-23T13:05:51;7.23;;;6.83;;
450;SDS011;212;48.748;9.174;2022-07-23T13:08:18;7.10;;;6.70;;
450;SDS011;212;48.748;9.174;2022-07-23T13:10:46;8.20;;;7.60;;
450;SDS011;212;48.748;9.174;2022-07-23T13:13:15;6.93;;;6.53;;
450;SDS011;212;48.748;9.174;2022-07-23T13:15:43;7.27;;;6.87;;
450;SDS011;212;48.748;9.174;2022-07-23T13:18:10;7.60;;;7.20;;
450;SDS011;212;48.748;9.174;2022-07-23T13:20:36;7.83;;;7.43;;
450;SDS011;212;48.748;9.174;2022-07-23T13:23:04;7.10;;;6.70;;
450;SDS011;212;48.748;9.174;2022-07-23T13:25:31;6.57;;;6.17;;
450;SDS011;212;48.748;9.174;2022-07-23T13:27:59;6.73;;;6.33;;
450;SDS011;212;48.748;9.174;2022-07-23T13:30:26;7.57;;;7.17;;
450;SDS011;212;48.748;9.174;2022-07-23T13:32:52;6.90;;;6.50;;
450;SDS011;212;48.748;9.174;2022-07-23T13:35:19;7.83;;;7.43;;
450;SDS011;212;48.748;9.174;2022-07-23T13:37:46;7.00;;;6.60;;
450;SDS011;212;48.748;9.174;2022-07-23T13:40:13;7.63;;;7.23;;
450;SDS011;212;48.748;9.174;2022-07-23T13:42:40;7.17;;;6.77;;
450;SDS011;212;48.748;9.174;2022-07-23T13:45:08;7.83;;;7.43;;
450;SDS011;212;48.748;9.174;2022-07-23T13:47:36;8.37;;;7.93;;
450;SDS011;212;48.748;9.174;2022-07-23T13:50:03;7.50;;;7.10;;
450;SDS011;212;48.748;9.174;2022-07-23T13:52:31;8.50;;;8.00;;
450;SDS011;212;48.748;9.174;2022-07-23T13:54:58;7.50;;;7.10;;
450;SDS011;212;48.748;9.174;2022-07-23T13:57:25;7.63;;;7.23;;
450;SDS011;212;48.748;9.174;2022-07-23T13:59:52;7.27;;;6.87;;
450;SDS011;212;48.748;9.174;2022-07-23T14:02:20;7.57;;;7.17;;
450;SDS011;212;48.748;9.174;2022-07-23T14:04:47;7.83;;;7.43;;
450;SDS011;212;48.748;9.174;2022-07-23T14:07:14;6.93;;;6.53;;
450;SDS011;212;48.748;9.174;2022-07-23T14:09:41;7.53;;;7.13;;
450;SDS011;212;48.748;9.174;2022-07-23T14:12:08;7.60;;;7.20;;
450;SDS011;212;48.748;9.174;2022-07-23T14:14:35;8.37;;;7.93;;
450;SDS011;212;48.748;9.174;2022-07-23T14:17:02;7.47;;;7.07;;
450;SDS011;212;48.748;9.174;2022-07-23T14:19:31;8.10;;;7.70;;
450;SDS011;212;48.748;9.174;2022-07-23T14:21:57;7.63;;;7.27;;
450;SDS011;212;48.748;9.174;2022-07-23T14:24:24;8.17;;;7.77;;
450;SDS011;212;48.748;9.174;2022-07-23T14:26:50;7.57;;;7.17;;
450;SDS011;212;48.748;9.174;2022-07-23T14:29:17;8.00;;;7.60;;
450;SDS011;212;48.748;9.174;2022-07-23T14:31:44;9.03;;;8.50;;
450;SDS011;212;48.748;9.174;2022-07-23T14:34:10;8.77;;;8.27;;
450;SDS011;212;48.748;9.174;2022-07-23T14:36:38;7.83;;;7.43;;
450;SDS011;212;48.748;9.174;2022-07-23T14:39:05;8.17;;;7.77;;
450;SDS011;212;48.748;9.174;2022-07-23T14:41:33;7.90;;;7.47;;
450;SDS011;212;48.748;9.174;2022-07-23T14:44:00;6.93;;;6.53;;
450;SDS011;212;48.748;9.174;2022-07-23T14:46:27;8.13;;;7.73;;
450;SDS011;212;48.748;9.174;2022-07-23T14:48:55;7.87;;;7.47;;
450;SDS011;212;48.748;9.174;2022-07-23T14:51:21;8.10;;;7.70;;
450;SDS011;212;48.748;9.174;2022-07-23T14:53:49;8.07;;;7.67;;
450;SDS011;212;48.748;9.174;2022-07-23T14:56:16;6.97;;;6.57;;
450;SDS011;212;48.748;9.174;2022-07-23T14:58:43;7.63;;;7.23;;
450;SDS011;212;48.748;9.174;2022-07-23T15:01:10;6.93;;;6.53;;
450;SDS011;212;48.748;9.174;2022-07-23T15:03:36;8.33;;;7.90;;
450;SDS011;212;48.748;9.174;2022-07-23T15:06:03;7.60;;;7.20;;
450;SDS011;212;48.748;9.174;2022-07-23T15:08:31;7.70;;;7.30;;
450;SDS011;212;48.748;9.174;2022-07-23T15:10:59;7.90;;;7.50;;
450;SDS011;212;48.748;9.174;2022-07-23T15:13:25;7.13;;;6.73;;
450;SDS011;212;48.748;9.174;2022-07-23T15:15:52;7.67;;;7.27;;
450;SDS011;212;48.748;9.174;2022-07-23T15:18:19;8.00;;;7.60;;
450;SDS011;212;48.748;9.174;2022-07-23T15:20:45;7.37;;;6.93;;
450;SDS011;212;48.748;9.174;2022-07-23T15:23:12;7.47;;;7.07;;
450;SDS011;212;48.748;9.174;2022-07-23T15:25:39;7.40;;;7.00;;
450;SDS011;212;48.748;9.174;2022-07-23T15:28:06;8.60;;;8.10;;
450;SDS011;212;48.748;9.174;2022-07-23T15:30:33;8.33;;;7.70;;
450;SDS011;212;48.748;9.174;2022-07-23T15:33:00;8.53;;;8.03;;
450;SDS011;212;48.748;9.174;2022-07-23T15:35:26;7.53;;;7.13;;
450;SDS011;212;48.748;9.174;2022-07-23T15:37:54;8.43;;;7.97;;
450;SDS011;212;48.748;9.174;2022-07-23T15:40:21;8.20;;;7.80;;
450;SDS011;212;48.748;9.174;2022-07-23T15:42:48;7.47;;;7.07;;
450;SDS011;212;48.748;9.174;2022-07-23T15:45:16;8.90;;;8.40;;
450;SDS011;212;48.748;9.174;2022-07-23T15:47:43;8.73;;;8.23;;
450;SDS011;212;48.748;9.174;2022-07-23T15:50:09;8.80;;;8.30;;
450;SDS011;212;48.748;9.174;2022-07-23T15:52:36;8.03;;;7.63;;
450;SDS011;212;48.748;9.174;2022-07-23T15:55:03;8.20;;;7.80;;
450;SDS011;212;48.748;9.174;2022-07-23T15:57:30;7.77;;;7.37;;
450;SDS011;212;48.748;9.174;2022-07-23T15:59:57;9.00;;;8.50;;
450;SDS011;212;48.748;9.174;2022-07-23T16:02:25;7.83;;;7.43;;
450;SDS011;212;48.748;9.174;2022-07-23T16:04:52;7.30;;;6.90;;